Time;durP1;ratioP1;P1;durP2;ratioP2;P2;SDS_P1;SDS_P2;PMS_P1;PMS_P2;Temp;Humidity;BMP_temperature;BMP_pressure;BME280_temperature;BME280_humidity;BME280_pressure;Samples;Min_cycle;Max_cycle;Signal;HPM_P1;HPM_P2
2021/05/25 00:02:22;;;;;;;15.33;14.43;;;24.40;68.60;;;;;;3566172;40;20488;-50
2021/05/25 00:04:50;;;;;;;15.00;14.10;;;24.40;68.70;;;;;;3565762;40;20482;-49
2021/05/25 00:07:18;;;;;;;15.50;14.50;;;24.50;68.80;;;;;;3561058;40;20872;-49
2021/05/25 00:09:44;;;;;;;15.68;14.65;;;24.40;68.70;;;;;;3556205;40;20499;-49
2021/05/25 00:12:19;;;;;;;15.70;14.60;;;24.40;68.70;;;;;;3556751;40;20227;-49
2021/05/25 00:14:48;;;;;;;14.77;13.70;;;24.40;68.70;;;;;;3556944;40;20472;-50
2021/05/25 00:17:14;;;;;;;14.53;13.73;;;24.40;68.60;;;;;;3556393;40;20502;-49
2021/05/25 00:19:41;;;;;;;14.73;13.87;;;24.40;68.70;;;;;;3555702;40;20503;-49
2021/05/25 00:22:09;;;;;;;16.27;15.07;;;24.40;68.70;;;;;;3562389;40;20496;-49
2021/05/25 00:24:37;;;;;;;15.57;14.40;;;24.40;68.60;;;;;;3556734;40;20501;-50
2021/05/25 00:27:07;;;;;;;15.77;14.77;;;24.40;68.60;;;;;;3556081;40;20850;-49
2021/05/25 00:29:34;;;;;;;15.33;14.40;;;24.40;68.60;;;;;;3555663;40;20475;-50
2021/05/25 00:32:02;;;;;;;16.30;15.20;;;24.40;68.60;;;;;;3556211;40;21127;-49
2021/05/25 00:34:28;;;;;;;15.63;14.53;;;24.40;68.70;;;;;;3556321;40;20498;-50
2021/05/25 00:36:56;;;;;;;15.45;14.40;;;24.40;68.60;;;;;;3561908;40;20482;-49
2021/05/25 00:39:24;;;;;;;15.95;14.85;;;24.40;68.60;;;;;;3565788;40;20228;-49
2021/05/25 00:41:52;;;;;;;15.87;14.60;;;24.40;68.60;;;;;;3565999;40;20226;-49
2021/05/25 00:44:18;;;;;;;15.20;14.03;;;24.40;68.50;;;;;;3568330;40;20462;-49
2021/05/25 00:46:46;;;;;;;15.00;14.00;;;24.40;68.50;;;;;;3567678;40;20493;-49
2021/05/25 00:49:14;;;;;;;16.00;14.77;;;24.40;68.50;;;;;;3568160;40;20579;-49
2021/05/25 00:51:41;;;;;;;15.33;14.27;;;24.40;68.50;;;;;;3567724;40;20506;-49
2021/05/25 00:54:09;;;;;;;15.30;14.30;;;24.40;68.40;;;;;;3566845;40;20482;-49
2021/05/25 00:56:35;;;;;;;15.77;14.77;;;24.40;68.50;;;;;;3564026;40;20960;-50
2021/05/25 00:59:03;;;;;;;16.20;14.80;;;24.40;68.40;;;;;;3557437;40;20482;-49
2021/05/25 01:01:31;;;;;;;15.37;14.23;;;24.40;68.40;;;;;;3554642;40;20480;-50
2021/05/25 01:03:58;;;;;;;14.73;13.90;;;24.40;68.50;;;;;;3557945;40;20646;-49
2021/05/25 01:06:25;;;;;;;15.33;14.23;;;24.40;68.40;;;;;;3555598;40;20495;-49
2021/05/25 01:08:52;;;;;;;14.47;13.57;;;24.40;68.40;;;;;;3547937;40;20498;-50
2021/05/25 01:11:20;;;;;;;16.33;15.13;;;24.40;68.40;;;;;;3548100;40;20479;-49
2021/05/25 01:13:49;;;;;;;15.97;14.73;;;24.40;68.40;;;;;;3548441;40;20529;-49
2021/05/25 01:16:17;;;;;;;15.63;14.63;;;24.50;68.40;;;;;;3548440;40;20504;-49
2021/05/25 01:18:45;;;;;;;14.67;13.43;;;24.40;68.30;;;;;;3556489;40;20482;-49
2021/05/25 01:21:13;;;;;;;15.70;14.50;;;24.50;68.40;;;;;;3558226;40;20930;-50
2021/05/25 01:23:42;;;;;;;14.40;13.50;;;24.50;68.40;;;;;;3558203;40;20481;-48
2021/05/25 01:26:09;;;;;;;14.70;13.80;;;24.40;68.30;;;;;;3552047;40;20480;-49
2021/05/25 01:28:37;;;;;;;15.00;14.10;;;24.50;68.40;;;;;;3553570;40;20603;-49
2021/05/25 01:31:05;;;;;;;15.00;13.80;;;24.50;68.40;;;;;;3557601;40;20521;-50
2021/05/25 01:33:45;;;;;;;14.53;13.67;;;24.50;68.30;;;;;;3557950;40;20482;-50
2021/05/25 01:36:14;;;;;;;14.43;13.53;;;24.50;68.40;;;;;;3558734;40;20482;-50
2021/05/25 01:38:43;;;;;;;15.13;14.23;;;24.50;68.30;;;;;;3557713;40;20494;-49
2021/05/25 01:41:11;;;;;;;15.30;14.20;;;24.50;68.30;;;;;;3558277;40;20786;-49
2021/05/25 01:43:39;;;;;;;15.20;13.97;;;24.50;68.30;;;;;;3556719;40;20490;-49
2021/05/25 01:46:09;;;;;;;15.30;14.40;;;24.50;68.30;;;;;;3556580;40;20474;-49
2021/05/25 01:48:36;;;;;;;15.60;14.50;;;24.50;68.20;;;;;;3549284;40;20498;-50
2021/05/25 01:51:03;;;;;;;15.57;14.43;;;24.50;68.30;;;;;;3547876;40;20486;-50
2021/05/25 01:53:30;;;;;;;14.93;13.73;;;24.50;68.20;;;;;;3548032;40;20501;-48
2021/05/25 01:55:59;;;;;;;15.70;14.70;;;24.50;68.10;;;;;;3548293;40;20510;-50
2021/05/25 01:58:32;;;;;;;15.07;14.17;;;24.60;68.20;;;;;;3554119;40;20487;-49
2021/05/25 02:01:02;;;;;;;15.20;14.30;;;24.60;68.20;;;;;;3556451;40;20726;-50
2021/05/25 02:03:30;;;;;;;15.97;14.97;;;24.60;68.10;;;;;;3557071;40;20574;-50
2021/05/25 02:05:58;;;;;;;15.17;14.13;;;24.60;68.10;;;;;;3557410;40;20520;-49
2021/05/25 02:08:25;;;;;;;16.90;15.83;;;24.60;68.20;;;;;;3548142;40;20579;-49
2021/05/25 02:10:54;;;;;;;16.30;15.30;;;24.60;68.10;;;;;;3547755;40;20476;-50
2021/05/25 02:13:26;;;;;;;15.20;14.20;;;24.60;68.10;;;;;;3547258;40;20487;-49
2021/05/25 02:15:56;;;;;;;15.27;14.38;;;24.60;68.10;;;;;;3547786;40;20868;-49
2021/05/25 02:18:24;;;;;;;14.47;13.77;;;24.60;68.10;;;;;;3554279;40;20245;-49
2021/05/25 02:20:53;;;;;;;15.13;14.27;;;24.60;68.00;;;;;;3557726;40;20483;-50
2021/05/25 02:23:21;;;;;;;14.93;14.02;;;24.60;68.00;;;;;;3548697;40;20484;-49
2021/05/25 02:25:49;;;;;;;15.00;14.30;;;24.60;68.00;;;;;;3561824;40;20237;-49
2021/05/25 02:28:16;;;;;;;15.77;14.87;;;24.60;68.00;;;;;;3559149;40;20240;-49
2021/05/25 02:30:44;;;;;;;15.77;14.67;;;24.60;67.90;;;;;;3557380;40;20772;-50
2021/05/25 02:33:16;;;;;;;15.60;14.70;;;24.60;67.90;;;;;;3557714;40;20486;-50
2021/05/25 02:35:44;;;;;;;15.10;14.30;;;24.70;68.00;;;;;;3557627;40;20494;-50
2021/05/25 02:38:13;;;;;;;15.87;14.93;;;24.70;67.90;;;;;;3563066;40;20506;-49
2021/05/25 02:40:42;;;;;;;15.57;14.67;;;24.70;67.90;;;;;;3567851;40;20484;-51
2021/05/25 02:43:10;;;;;;;15.07;14.27;;;24.70;67.90;;;;;;3566775;40;20485;-49
2021/05/25 02:45:37;;;;;;;15.90;14.90;;;24.70;67.90;;;;;;3567529;40;20483;-50
2021/05/25 02:48:06;;;;;;;14.67;13.97;;;24.70;67.80;;;;;;3566746;40;20486;-50
2021/05/25 02:50:34;;;;;;;16.00;15.07;;;24.70;67.80;;;;;;3566133;40;20494;-49
2021/05/25 02:53:02;;;;;;;14.93;14.13;;;24.70;67.80;;;;;;3567061;40;20705;-49
2021/05/25 02:55:31;;;;;;;15.53;14.73;;;24.70;67.70;;;;;;3565240;40;20596;-49
2021/05/25 02:58:01;;;;;;;15.20;14.40;;;24.70;67.80;;;;;;3566748;40;20869;-50
2021/05/25 03:00:30;;;;;;;15.63;14.60;;;24.70;67.80;;;;;;3567162;40;20493;-50
2021/05/25 03:02:58;;;;;;;15.83;14.90;;;24.70;67.80;;;;;;3567258;40;20513;-49
2021/05/25 03:05:27;;;;;;;16.98;15.75;;;24.70;67.80;;;;;;3566954;40;20868;-48
2021/05/25 03:07:55;;;;;;;15.67;14.73;;;24.70;67.80;;;;;;3567029;40;20617;-49
2021/05/25 03:10:25;;;;;;;16.90;16.00;;;24.70;67.80;;;;;;3566683;40;20486;-49
2021/05/25 03:12:52;;;;;;;15.93;15.10;;;24.70;67.80;;;;;;3566922;40;20483;-49
2021/05/25 03:15:21;;;;;;;15.90;15.00;;;24.80;67.80;;;;;;3566687;40;20951;-52
2021/05/25 03:17:49;;;;;;;15.50;14.43;;;24.70;67.70;;;;;;3566141;40;20253;-49
2021/05/25 03:20:17;;;;;;;16.33;15.10;;;24.80;67.80;;;;;;3566366;40;20488;-49
2021/05/25 03:22:46;;;;;;;17.97;16.90;;;24.80;67.70;;;;;;3567058;40;20482;-49
2021/05/25 03:25:14;;;;;;;17.10;16.10;;;24.70;67.70;;;;;;3566383;40;21101;-49
2021/05/25 03:27:43;;;;;;;17.33;16.30;;;24.80;67.70;;;;;;3566187;40;20516;-50
2021/05/25 03:30:11;;;;;;;16.60;15.80;;;24.80;68.40;;;;;;3565451;40;20864;-49
2021/05/25 03:32:39;;;;;;;16.67;15.67;;;24.80;67.70;;;;;;3566236;40;20471;-49
2021/05/25 03:35:09;;;;;;;17.30;16.20;;;24.80;67.70;;;;;;3566437;40;20494;-49
2021/05/25 03:37:39;;;;;;;16.73;15.77;;;24.80;67.60;;;;;;3566170;40;20475;-49
2021/05/25 03:40:09;;;;;;;16.90;16.00;;;24.80;67.70;;;;;;3558167;40;20898;-49
2021/05/25 03:42:37;;;;;;;16.73;15.83;;;24.80;67.60;;;;;;3566714;40;20859;-51
2021/05/25 03:45:06;;;;;;;17.30;16.20;;;24.80;67.60;;;;;;3566315;40;20568;-51
2021/05/25 03:47:33;;;;;;;17.20;16.10;;;24.80;67.60;;;;;;3564645;40;20913;-49
2021/05/25 03:50:07;;;;;;;17.30;16.37;;;24.80;67.60;;;;;;3556463;40;20942;-49
2021/05/25 03:52:36;;;;;;;16.83;15.93;;;24.80;67.60;;;;;;3565570;40;20484;-49
2021/05/25 03:55:06;;;;;;;16.87;15.97;;;24.80;67.60;;;;;;3564965;40;20493;-51
2021/05/25 04:00:19;;;;;;;16.00;15.10;;;24.80;67.50;;;;;;3565600;40;20553;-49
2021/05/25 04:02:45;;;;;;;16.50;15.43;;;24.80;67.40;;;;;;3564924;40;20478;-50
2021/05/25 04:05:21;;;;;;;16.20;15.40;;;24.90;67.50;;;;;;3563354;40;20478;-51
2021/05/25 04:07:48;;;;;;;16.87;15.97;;;24.90;67.50;;;;;;3558139;40;20981;-50
2021/05/25 04:10:16;;;;;;;16.90;15.90;;;24.90;67.50;;;;;;3564747;40;20471;-49
2021/05/25 04:12:44;;;;;;;15.90;15.10;;;24.90;67.40;;;;;;3554395;40;20936;-50
2021/05/25 04:15:11;;;;;;;16.42;15.52;;;24.90;67.40;;;;;;3554094;40;20230;-49
2021/05/25 04:17:41;;;;;;;16.53;15.53;;;24.90;67.40;;;;;;3555356;40;20300;-50
2021/05/25 04:20:14;;;;;;;17.30;16.30;;;24.90;67.30;;;;;;3556809;40;20693;-50
2021/05/25 04:22:41;;;;;;;16.83;15.93;;;25.00;67.40;;;;;;3564613;40;20478;-50
2021/05/25 04:25:09;;;;;;;17.17;16.20;;;25.00;67.30;;;;;;3566510;40;20473;-49
2021/05/25 04:27:35;;;;;;;16.50;15.67;;;25.00;67.30;;;;;;3556085;40;20563;-49
2021/05/25 04:30:07;;;;;;;16.80;15.90;;;25.00;67.20;;;;;;3565578;40;20489;-49
2021/05/25 04:32:34;;;;;;;16.40;15.60;;;25.00;67.20;;;;;;3564722;40;20498;-49
2021/05/25 04:35:00;;;;;;;17.83;16.73;;;25.00;67.10;;;;;;3564900;40;20476;-51
2021/05/25 04:37:28;;;;;;;16.37;15.57;;;25.00;67.10;;;;;;3562385;40;20498;-49
2021/05/25 04:39:56;;;;;;;16.67;15.88;;;25.00;67.10;;;;;;3566639;40;20485;-50
2021/05/25 04:42:23;;;;;;;17.40;16.50;;;25.10;67.10;;;;;;3565731;40;20244;-49
2021/05/25 04:44:53;;;;;;;16.45;15.65;;;25.10;67.10;;;;;;3565080;40;20491;-50
2021/05/25 04:47:21;;;;;;;17.23;16.33;;;25.20;67.10;;;;;;3563300;40;20238;-50
2021/05/25 04:49:48;;;;;;;17.33;16.42;;;25.10;66.90;;;;;;3564070;40;21038;-50
2021/05/25 04:52:16;;;;;;;17.70;16.80;;;25.10;66.90;;;;;;3563719;40;20499;-49
2021/05/25 04:54:43;;;;;;;17.53;16.50;;;25.20;66.90;;;;;;3563520;40;20483;-52
2021/05/25 04:57:11;;;;;;;17.70;16.80;;;25.20;66.90;;;;;;3555810;40;20487;-50
2021/05/25 04:59:38;;;;;;;17.30;16.50;;;25.20;66.80;;;;;;3542988;40;20475;-49
2021/05/25 05:02:06;;;;;;;17.03;16.20;;;25.20;66.80;;;;;;3552115;40;20475;-49
2021/05/25 05:04:34;;;;;;;17.27;16.20;;;25.20;66.80;;;;;;3553689;40;20908;-49
2021/05/25 05:07:02;;;;;;;16.77;15.87;;;25.20;66.80;;;;;;3553169;40;20482;-51
2021/05/25 05:09:29;;;;;;;16.67;15.77;;;25.20;66.80;;;;;;3552755;40;20484;-49
2021/05/25 05:11:56;;;;;;;16.40;15.60;;;25.20;66.80;;;;;;3551186;40;20493;-49
2021/05/25 05:14:24;;;;;;;16.47;15.60;;;25.20;66.80;;;;;;3551660;40;20574;-50
2021/05/25 05:16:51;;;;;;;16.73;15.93;;;25.20;66.80;;;;;;3561241;40;20481;-49
2021/05/25 05:19:17;;;;;;;17.17;16.27;;;25.10;66.90;;;;;;3560737;40;21164;-49
2021/05/25 05:21:45;;;;;;;17.90;17.00;;;25.10;66.80;;;;;;3560340;40;20486;-49
2021/05/25 05:24:12;;;;;;;17.50;16.50;;;25.10;66.90;;;;;;3557613;40;20495;-49
2021/05/25 05:26:39;;;;;;;18.50;17.60;;;25.10;66.90;;;;;;3559942;40;20649;-50
2021/05/25 05:29:07;;;;;;;16.90;16.10;;;25.10;66.90;;;;;;3555634;40;21386;-50
2021/05/25 05:31:34;;;;;;;16.80;15.90;;;25.10;67.10;;;;;;3558699;40;20227;-49
2021/05/25 05:34:03;;;;;;;16.97;16.27;;;25.00;67.00;;;;;;3558339;40;20494;-49
2021/05/25 05:36:30;;;;;;;17.33;16.43;;;25.00;67.00;;;;;;3555545;40;20475;-51
2021/05/25 05:38:59;;;;;;;17.13;16.20;;;25.00;67.00;;;;;;3539888;40;21084;-49
2021/05/25 05:41:26;;;;;;;17.67;16.77;;;25.00;67.10;;;;;;3559199;40;20942;-50
2021/05/25 05:43:56;;;;;;;13.73;13.03;;;25.00;67.10;;;;;;3557192;40;20492;-49
2021/05/25 05:46:24;;;;;;;13.10;12.50;;;25.00;61.80;;;;;;3557214;40;20557;-52
2021/05/25 05:48:53;;;;;;;12.97;12.47;;;24.80;57.20;;;;;;3556834;40;20500;-49
2021/05/25 05:51:20;;;;;;;12.23;11.83;;;24.50;56.20;;;;;;3555783;40;20533;-51
2021/05/25 05:53:48;;;;;;;12.40;11.90;;;24.20;55.40;;;;;;3555049;40;20491;-49
2021/05/25 05:56:17;;;;;;;12.83;12.30;;;24.00;55.80;;;;;;3547211;40;20481;-49
2021/05/25 05:58:44;;;;;;;12.50;11.80;;;23.80;55.60;;;;;;3541716;40;20678;-50
2021/05/25 06:01:11;;;;;;;12.38;11.88;;;23.60;55.30;;;;;;3554114;40;20488;-49
2021/05/25 06:03:39;;;;;;;12.30;11.90;;;23.50;55.40;;;;;;3553256;40;20234;-50
2021/05/25 06:06:05;;;;;;;13.13;12.50;;;23.30;55.40;;;;;;3554010;40;20489;-49
2021/05/25 06:08:34;;;;;;;12.90;12.43;;;23.30;55.80;;;;;;3551302;40;20613;-49
2021/05/25 06:11:01;;;;;;;13.40;12.70;;;23.20;57.30;;;;;;3553000;40;20804;-49
2021/05/25 06:13:29;;;;;;;13.47;12.80;;;23.30;59.00;;;;;;3552611;40;20480;-50
2021/05/25 06:16:02;;;;;;;13.10;12.50;;;23.50;60.00;;;;;;3550002;40;20535;-52
2021/05/25 06:18:29;;;;;;;12.88;12.27;;;23.60;60.80;;;;;;3541661;40;20919;-50
2021/05/25 06:20:56;;;;;;;12.90;12.40;;;23.80;61.40;;;;;;3542773;40;20259;-49
2021/05/25 06:23:23;;;;;;;12.60;11.90;;;23.90;61.50;;;;;;3539436;40;20482;-49
2021/05/25 06:25:50;;;;;;;12.95;12.25;;;24.00;61.40;;;;;;3539743;40;20823;-49
2021/05/25 06:28:18;;;;;;;12.67;12.07;;;24.10;61.30;;;;;;3545245;40;20253;-50
2021/05/25 06:30:48;;;;;;;12.20;11.80;;;24.20;61.20;;;;;;3552148;40;20485;-49
2021/05/25 06:33:16;;;;;;;12.97;12.47;;;24.30;61.10;;;;;;3539615;40;20477;-50
2021/05/25 06:35:42;;;;;;;13.20;12.50;;;24.40;60.90;;;;;;3543374;40;20507;-49
2021/05/25 06:38:10;;;;;;;11.77;11.27;;;24.50;60.70;;;;;;3549229;40;21568;-49
2021/05/25 06:40:38;;;;;;;11.90;11.50;;;24.60;60.60;;;;;;3547510;40;21180;-51
2021/05/25 06:43:05;;;;;;;12.23;11.70;;;24.60;60.20;;;;;;3549142;40;20240;-50
2021/05/25 06:45:34;;;;;;;12.90;12.40;;;24.70;60.00;;;;;;3548454;40;20229;-50
2021/05/25 06:48:02;;;;;;;12.40;11.90;;;24.80;60.00;;;;;;3546830;40;20493;-52
2021/05/25 06:50:28;;;;;;;12.53;11.70;;;24.80;60.10;;;;;;3538863;40;20494;-51
2021/05/25 06:52:56;;;;;;;12.43;11.57;;;24.80;60.20;;;;;;3541624;40;20504;-50
2021/05/25 06:55:23;;;;;;;12.80;11.90;;;24.80;60.30;;;;;;3540357;40;20489;-51
2021/05/25 06:57:52;;;;;;;12.73;12.03;;;24.80;60.40;;;;;;3541303;40;20514;-49
2021/05/25 07:00:22;;;;;;;12.60;11.90;;;24.80;60.50;;;;;;3546607;40;20487;-51
2021/05/25 07:02:49;;;;;;;12.13;11.33;;;24.80;60.60;;;;;;3538116;40;20511;-49
2021/05/25 07:05:16;;;;;;;12.30;11.40;;;24.90;60.80;;;;;;3538194;40;20594;-51
2021/05/25 07:07:43;;;;;;;11.20;10.80;;;24.90;60.90;;;;;;3539486;40;20557;-50
2021/05/25 07:10:14;;;;;;;11.77;11.13;;;24.90;60.90;;;;;;3540033;40;20516;-51
2021/05/25 07:12:42;;;;;;;11.90;11.20;;;24.90;61.10;;;;;;3534901;40;20510;-51
2021/05/25 07:15:11;;;;;;;11.23;10.70;;;24.90;61.10;;;;;;3548600;40;20490;-49
2021/05/25 07:17:39;;;;;;;11.37;10.97;;;24.90;61.20;;;;;;3549963;40;20493;-51
2021/05/25 07:20:07;;;;;;;12.07;11.37;;;24.90;61.30;;;;;;3548652;40;21273;-50
2021/05/25 07:22:35;;;;;;;11.83;11.30;;;24.90;61.40;;;;;;3545609;40;20530;-50
2021/05/25 07:25:02;;;;;;;11.97;11.23;;;24.90;61.40;;;;;;3530434;40;20495;-50
2021/05/25 07:27:30;;;;;;;11.93;10.80;;;24.90;61.40;;;;;;3539002;40;20484;-51
2021/05/25 07:29:57;;;;;;;12.30;11.40;;;24.90;61.40;;;;;;3545403;40;20498;-50
2021/05/25 07:32:24;;;;;;;11.77;11.07;;;24.90;61.40;;;;;;3547005;40;20489;-50
2021/05/25 07:34:51;;;;;;;12.10;11.50;;;24.90;61.50;;;;;;3546848;40;20486;-49
2021/05/25 07:37:18;;;;;;;12.63;11.93;;;24.90;61.50;;;;;;3549927;40;20474;-48
2021/05/25 07:39:48;;;;;;;12.60;12.00;;;24.90;61.50;;;;;;3548791;40;20477;-52
2021/05/25 07:42:15;;;;;;;12.13;11.53;;;24.90;61.60;;;;;;3549131;40;20498;-49
2021/05/25 07:44:43;;;;;;;12.38;11.98;;;24.90;61.50;;;;;;3544321;40;20850;-50
2021/05/25 07:47:10;;;;;;;13.03;12.00;;;24.90;61.70;;;;;;3540665;40;20614;-51
2021/05/25 07:49:37;;;;;;;12.23;11.63;;;24.90;61.70;;;;;;3539077;40;20626;-50
2021/05/25 07:52:05;;;;;;;12.27;11.77;;;24.90;61.70;;;;;;3551984;40;20950;-50
2021/05/25 07:54:31;;;;;;;13.10;12.10;;;24.90;61.80;;;;;;3550384;40;20485;-49
2021/05/25 07:57:00;;;;;;;12.60;11.60;;;24.90;61.90;;;;;;3548440;40;20579;-50
2021/05/25 07:59:27;;;;;;;11.93;11.23;;;24.90;62.00;;;;;;3551117;40;20644;-50
2021/05/25 08:01:55;;;;;;;12.33;11.67;;;24.90;62.00;;;;;;3550001;40;20469;-49
2021/05/25 08:04:22;;;;;;;13.70;12.60;;;24.90;62.20;;;;;;3549865;40;20485;-49
2021/05/25 08:06:50;;;;;;;13.38;12.70;;;24.90;62.20;;;;;;3548740;40;20514;-53
2021/05/25 08:09:17;;;;;;;13.60;12.70;;;24.90;62.30;;;;;;3549128;40;20247;-49
2021/05/25 08:11:43;;;;;;;13.23;12.63;;;24.90;62.30;;;;;;3548387;40;20891;-50
2021/05/25 08:14:12;;;;;;;12.77;12.07;;;24.80;62.20;;;;;;3548868;40;20312;-50
2021/05/25 08:16:42;;;;;;;12.67;12.07;;;24.90;62.50;;;;;;3548358;40;20572;-50
2021/05/25 08:19:12;;;;;;;13.90;12.90;;;24.80;62.30;;;;;;3549080;40;20490;-52
2021/05/25 08:21:41;;;;;;;14.03;13.33;;;24.80;62.30;;;;;;3549888;40;20887;-50
2021/05/25 08:24:08;;;;;;;13.00;12.37;;;24.80;62.10;;;;;;3548880;40;20481;-52
2021/05/25 08:26:39;;;;;;;12.87;11.90;;;24.80;61.90;;;;;;3550754;40;20477;-51
2021/05/25 08:29:06;;;;;;;13.20;12.20;;;24.80;61.40;;;;;;3548567;40;20488;-49
2021/05/25 08:31:34;;;;;;;12.87;12.03;;;24.80;61.00;;;;;;3546060;40;20482;-50
2021/05/25 08:34:02;;;;;;;13.10;12.10;;;24.80;60.00;;;;;;3547597;40;20494;-51
2021/05/25 08:36:31;;;;;;;11.93;11.17;;;24.80;59.80;;;;;;3550091;40;20493;-54
2021/05/25 08:38:58;;;;;;;12.20;11.53;;;24.80;59.90;;;;;;3549282;40;20476;-54
2021/05/25 08:41:30;;;;;;;13.03;12.37;;;24.70;59.80;;;;;;3547101;40;20955;-54
2021/05/25 08:43:59;;;;;;;12.83;12.13;;;24.70;59.60;;;;;;3546835;40;20485;-52
2021/05/25 08:46:25;;;;;;;12.70;12.20;;;24.70;59.60;;;;;;3544481;40;20475;-53
2021/05/25 08:48:54;;;;;;;12.77;12.07;;;24.70;59.30;;;;;;3540970;40;20967;-54
2021/05/25 08:51:22;;;;;;;11.43;11.03;;;24.70;58.90;;;;;;3542136;40;21423;-52
2021/05/25 08:53:50;;;;;;;13.07;12.40;;;24.70;59.50;;;;;;3551700;40;20484;-52
2021/05/25 08:56:18;;;;;;;12.25;11.75;;;24.70;60.80;;;;;;3547075;40;20494;-50
2021/05/25 08:58:45;;;;;;;12.37;11.67;;;24.70;61.70;;;;;;3547996;40;21031;-53
2021/05/25 09:01:12;;;;;;;12.27;11.80;;;24.70;62.10;;;;;;3546374;40;20498;-50
2021/05/25 09:03:56;;;;;;;11.23;10.83;;;24.70;61.90;;;;;;3538210;40;21316;-51
2021/05/25 09:06:37;;;;;;;10.87;10.47;;;24.60;61.40;;;;;;3536384;40;20510;-53
2021/05/25 09:09:11;;;;;;;11.03;10.30;;;24.70;61.20;;;;;;3546360;40;20501;-49
2021/05/25 09:12:00;;;;;;;10.63;10.20;;;24.70;60.70;;;;;;3532379;40;20477;-52
2021/05/25 09:14:28;;;;;;;11.37;10.70;;;24.70;60.40;;;;;;3539731;40;20486;-51
2021/05/25 09:17:21;;;;;;;11.50;11.00;;;24.70;60.40;;;;;;3540340;40;20479;-51
2021/05/25 09:19:51;;;;;;;11.30;10.80;;;24.70;60.40;;;;;;3542527;40;20493;-51
2021/05/25 09:22:27;;;;;;;11.37;10.77;;;24.70;60.50;;;;;;3548387;40;20480;-50
2021/05/25 09:24:55;;;;;;;11.57;11.07;;;24.70;60.60;;;;;;3547862;40;20517;-51
2021/05/25 09:27:32;;;;;;;12.13;11.23;;;24.70;60.80;;;;;;3539879;40;21140;-51
2021/05/25 09:30:21;;;;;;;11.30;10.80;;;24.70;60.90;;;;;;3539428;40;20835;-50
2021/05/25 09:32:52;;;;;;;11.90;11.10;;;24.70;61.00;;;;;;3538447;40;20486;-50
2021/05/25 09:35:22;;;;;;;11.93;11.03;;;24.80;61.30;;;;;;3550393;40;20519;-49
2021/05/25 09:37:52;;;;;;;11.07;10.57;;;24.80;61.30;;;;;;3539377;40;20498;-49
2021/05/25 09:40:22;;;;;;;11.40;10.80;;;24.80;61.30;;;;;;3535502;40;20477;-49
2021/05/25 09:42:52;;;;;;;11.93;11.33;;;24.80;61.30;;;;;;3537256;40;20480;-49
2021/05/25 09:45:20;;;;;;;12.00;11.17;;;24.80;61.40;;;;;;3540489;40;20479;-51
2021/05/25 09:47:52;;;;;;;11.80;10.80;;;24.80;61.50;;;;;;3548602;40;20522;-50
2021/05/25 09:50:22;;;;;;;12.13;11.43;;;24.70;61.60;;;;;;3549799;40;20542;-50
2021/05/25 09:53:07;;;;;;;11.53;10.87;;;24.70;61.60;;;;;;3539875;40;20504;-52
2021/05/25 09:55:48;;;;;;;11.43;10.83;;;24.70;61.70;;;;;;3546680;40;20483;-49
2021/05/25 09:58:14;;;;;;;11.70;10.90;;;24.80;61.90;;;;;;3534327;40;21151;-49
2021/05/25 10:00:44;;;;;;;11.50;10.90;;;24.80;61.80;;;;;;3538904;40;20798;-49
2021/05/25 10:03:15;;;;;;;11.57;10.97;;;24.80;61.90;;;;;;3546943;40;20485;-51
2021/05/25 10:05:45;;;;;;;11.07;10.43;;;24.80;62.00;;;;;;3550345;40;20492;-50
2021/05/25 10:08:15;;;;;;;11.50;10.80;;;24.80;62.00;;;;;;3548807;40;20490;-50
2021/05/25 10:10:42;;;;;;;11.20;10.50;;;24.80;61.90;;;;;;3546749;40;20505;-49
2021/05/25 10:13:11;;;;;;;11.60;10.93;;;24.80;62.00;;;;;;3541289;40;20502;-49
2021/05/25 10:15:38;;;;;;;11.80;11.00;;;24.80;62.00;;;;;;3539067;40;21310;-50
2021/05/25 10:20:56;;;;;;;11.57;10.93;;;24.80;62.00;;;;;;3536280;40;20486;-49
2021/05/25 10:23:23;;;;;;;10.70;10.30;;;24.80;61.90;;;;;;3546831;40;20490;-52
2021/05/25 10:25:53;;;;;;;12.70;11.75;;;24.90;62.10;;;;;;3547441;40;20511;-52
2021/05/25 10:28:21;;;;;;;12.02;11.50;;;24.80;62.00;;;;;;3547258;40;20323;-52
2021/05/25 10:30:50;;;;;;;12.27;11.52;;;24.80;62.00;;;;;;3534557;40;20243;-49
2021/05/25 10:33:31;;;;;;;11.77;11.37;;;24.90;62.10;;;;;;3545510;40;20231;-50
2021/05/25 10:36:13;;;;;;;11.67;11.00;;;24.90;62.10;;;;;;3606997;39;20618;-49
2021/05/25 10:38:57;;;;;;;11.40;10.80;;;24.90;62.10;;;;;;3604517;39;20566;-51
2021/05/25 10:41:33;;;;;;;10.60;10.20;;;24.90;62.10;;;;;;3606306;39;20520;-48
2021/05/25 10:44:00;;;;;;;11.43;10.70;;;24.90;62.10;;;;;;3606441;39;20903;-49
2021/05/25 10:46:29;;;;;;;11.73;11.20;;;24.90;62.10;;;;;;3607825;39;20470;-50
2021/05/25 10:49:12;;;;;;;11.80;11.10;;;24.90;62.10;;;;;;3604043;39;20472;-49
2021/05/25 10:52:16;;;;;;;12.20;11.30;;;24.90;62.20;;;;;;3605322;39;20486;-49
2021/05/25 10:54:59;;;;;;;11.13;10.53;;;24.80;62.20;;;;;;3608676;39;21166;-48
2021/05/25 10:57:37;;;;;;;10.50;10.10;;;24.80;62.30;;;;;;3597307;39;21064;-50
2021/05/25 11:00:10;;;;;;;10.87;10.23;;;24.90;62.60;;;;;;3605832;39;20494;-48
2021/05/25 11:02:48;;;;;;;10.17;9.80;;;24.80;62.50;;;;;;3614934;39;20897;-50
2021/05/25 11:05:39;;;;;;;10.87;10.20;;;24.80;62.60;;;;;;3615277;39;20789;-49
2021/05/25 11:08:29;;;;;;;10.90;10.10;;;24.80;62.80;;;;;;3616713;39;20478;-50
2021/05/25 11:11:16;;;;;;;10.63;10.03;;;24.80;62.80;;;;;;3611964;39;20482;-51
2021/05/25 11:13:45;;;;;;;10.33;9.97;;;24.80;62.90;;;;;;3619189;39;20478;-49
2021/05/25 11:16:15;;;;;;;10.83;10.13;;;24.80;62.90;;;;;;3619930;39;20569;-49
2021/05/25 11:18:46;;;;;;;10.60;10.10;;;24.80;62.90;;;;;;3619730;39;20731;-50
2021/05/25 11:24:41;;;;;;;10.70;10.10;;;24.90;63.10;;;;;;3615897;39;20486;-50
2021/05/25 11:27:12;;;;;;;10.63;10.17;;;24.80;63.10;;;;;;3616279;39;20490;-49
2021/05/25 11:29:49;;;;;;;10.60;10.20;;;24.80;63.20;;;;;;3617568;39;20704;-49
2021/05/25 11:32:18;;;;;;;10.90;10.50;;;24.80;63.20;;;;;;3614335;39;21002;-51
2021/05/25 11:34:54;;;;;;;11.43;10.53;;;24.80;63.40;;;;;;3617164;39;20532;-49
2021/05/25 11:37:22;;;;;;;11.27;10.63;;;24.80;63.50;;;;;;3619574;39;20505;-50
2021/05/25 11:39:49;;;;;;;10.20;9.70;;;24.80;63.50;;;;;;3609725;39;20490;-50
2021/05/25 11:42:22;;;;;;;11.23;10.60;;;24.70;63.50;;;;;;3606242;39;20475;-49
2021/05/25 11:44:52;;;;;;;10.43;9.93;;;24.70;63.50;;;;;;3613211;39;20490;-48
2021/05/25 11:47:19;;;;;;;10.87;10.27;;;24.70;63.50;;;;;;3605667;39;20970;-50
2021/05/25 11:49:48;;;;;;;10.30;9.90;;;24.80;63.70;;;;;;3595149;39;21171;-49
2021/05/25 11:52:27;;;;;;;11.17;10.67;;;24.70;64.40;;;;;;3590882;39;20974;-50
2021/05/25 11:54:58;;;;;;;10.90;10.30;;;24.70;63.80;;;;;;3589941;39;20486;-48
2021/05/25 11:57:32;;;;;;;10.60;10.20;;;24.70;63.80;;;;;;3590099;39;20486;-48
2021/05/25 12:00:03;;;;;;;11.40;10.70;;;24.70;63.80;;;;;;3591110;39;20604;-49
2021/05/25 12:02:44;;;;;;;11.17;10.67;;;24.70;63.80;;;;;;3591978;39;20521;-49
2021/05/25 12:05:15;;;;;;;11.93;11.23;;;24.60;63.80;;;;;;3591316;39;20488;-49
2021/05/25 12:07:44;;;;;;;11.60;11.20;;;24.60;63.90;;;;;;3589641;39;20581;-49
2021/05/25 12:10:13;;;;;;;11.87;11.37;;;24.60;64.00;;;;;;3589686;39;20484;-49
2021/05/25 12:12:43;;;;;;;13.10;12.50;;;24.60;64.00;;;;;;3587191;39;20608;-50
2021/05/25 12:15:19;;;;;;;12.93;12.13;;;24.70;64.00;;;;;;3588792;39;20698;-49
2021/05/25 12:17:48;;;;;;;11.77;11.27;;;24.70;63.90;;;;;;3587761;39;20487;-49
2021/05/25 12:20:18;;;;;;;11.13;10.63;;;24.70;63.70;;;;;;3590884;39;20507;-52
2021/05/25 12:22:48;;;;;;;12.20;11.50;;;24.70;63.70;;;;;;3590922;39;20742;-50
2021/05/25 12:25:30;;;;;;;12.13;11.53;;;24.70;63.50;;;;;;3591772;39;20487;-50
2021/05/25 12:28:11;;;;;;;12.00;11.30;;;24.70;63.40;;;;;;3592502;39;20492;-51
2021/05/25 12:30:44;;;;;;;11.47;10.97;;;24.70;63.30;;;;;;3582808;39;20468;-49
2021/05/25 12:33:18;;;;;;;11.57;10.90;;;24.70;63.30;;;;;;3588961;39;20492;-49
2021/05/25 12:35:47;;;;;;;10.50;10.07;;;24.70;63.30;;;;;;3591808;39;20496;-52
2021/05/25 12:38:16;;;;;;;10.60;10.00;;;24.70;63.20;;;;;;3590261;39;20476;-50
2021/05/25 12:40:47;;;;;;;9.97;9.57;;;24.70;63.20;;;;;;3590619;39;20571;-52
2021/05/25 12:43:20;;;;;;;10.63;9.90;;;24.70;63.20;;;;;;3590114;39;20573;-49
2021/05/25 12:45:48;;;;;;;10.80;10.20;;;24.70;63.00;;;;;;3589087;39;20488;-49
2021/05/25 12:48:16;;;;;;;17.93;10.13;;;24.70;63.00;;;;;;3590858;39;20499;-49
2021/05/25 12:50:44;;;;;;;11.00;10.40;;;24.70;63.10;;;;;;3589371;39;20581;-50